sensor_id;sensor_type;location;lat;lon;timestamp;P1;durP1;ratioP1;P2;durP2;ratioP2
3095;SDS011;1558;42.700;23.360;2024-01-30T00:01:09;6.53;;;4.90;;
3095;SDS011;1558;42.700;23.360;2024-01-30T00:03:37;6.00;;;5.10;;
3095;SDS011;1558;42.700;23.360;2024-01-30T00:06:06;5.60;;;5.00;;
3095;SDS011;1558;42.700;23.360;2024-01-30T00:08:36;5.53;;;5.00;;
3095;SDS011;1558;42.700;23.360;2024-01-30T00:11:05;5.27;;;4.70;;
3095;SDS011;1558;42.700;23.360;2024-01-30T00:13:35;6.23;;;4.87;;
3095;SDS011;1558;42.700;23.360;2024-01-30T00:16:04;5.70;;;5.00;;
3095;SDS011;1558;42.700;23.360;2024-01-30T00:18:33;5.63;;;4.63;;
3095;SDS011;1558;42.700;23.360;2024-01-30T00:21:01;5.33;;;4.83;;
3095;SDS011;1558;42.700;23.360;2024-01-30T00:23:29;5.77;;;5.17;;
3095;SDS011;1558;42.700;23.360;2024-01-30T00:25:59;5.47;;;4.73;;
3095;SDS011;1558;42.700;23.360;2024-01-30T00:28:27;4.97;;;4.40;;
3095;SDS011;1558;42.700;23.360;2024-01-30T00:30:55;5.80;;;4.80;;
3095;SDS011;1558;42.700;23.360;2024-01-30T00:33:23;5.53;;;4.93;;
3095;SDS011;1558;42.700;23.360;2024-01-30T00:35:51;5.27;;;4.77;;
3095;SDS011;1558;42.700;23.360;2024-01-30T00:38:19;6.50;;;5.37;;
3095;SDS011;1558;42.700;23.360;2024-01-30T00:40:48;5.90;;;5.00;;
3095;SDS011;1558;42.700;23.360;2024-01-30T00:43:17;6.93;;;5.03;;
3095;SDS011;1558;42.700;23.360;2024-01-30T00:45:46;5.43;;;4.67;;
3095;SDS011;1558;42.700;23.360;2024-01-30T00:48:14;5.93;;;4.90;;
3095;SDS011;1558;42.700;23.360;2024-01-30T00:50:43;6.20;;;4.83;;
3095;SDS011;1558;42.700;23.360;2024-01-30T00:53:11;6.67;;;5.10;;
3095;SDS011;1558;42.700;23.360;2024-01-30T00:55:40;5.30;;;4.50;;
3095;SDS011;1558;42.700;23.360;2024-01-30T00:58:08;5.13;;;4.50;;
3095;SDS011;1558;42.700;23.360;2024-01-30T01:00:38;6.90;;;5.30;;
3095;SDS011;1558;42.700;23.360;2024-01-30T01:03:06;10.43;;;5.57;;
3095;SDS011;1558;42.700;23.360;2024-01-30T01:05:35;8.73;;;6.73;;
3095;SDS011;1558;42.700;23.360;2024-01-30T01:08:03;6.87;;;6.17;;
3095;SDS011;1558;42.700;23.360;2024-01-30T01:10:32;9.47;;;7.50;;
3095;SDS011;1558;42.700;23.360;2024-01-30T01:13:00;9.00;;;7.30;;
3095;SDS011;1558;42.700;23.360;2024-01-30T01:15:28;9.00;;;6.60;;
3095;SDS011;1558;42.700;23.360;2024-01-30T01:17:58;10.07;;;7.27;;
3095;SDS011;1558;42.700;23.360;2024-01-30T01:20:26;7.20;;;6.17;;
3095;SDS011;1558;42.700;23.360;2024-01-30T01:22:54;8.20;;;6.17;;
3095;SDS011;1558;42.700;23.360;2024-01-30T01:25:24;8.90;;;6.27;;
3095;SDS011;1558;42.700;23.360;2024-01-30T01:27:52;7.97;;;5.80;;
3095;SDS011;1558;42.700;23.360;2024-01-30T01:30:20;5.77;;;5.10;;
3095;SDS011;1558;42.700;23.360;2024-01-30T01:32:49;6.07;;;5.13;;
3095;SDS011;1558;42.700;23.360;2024-01-30T01:35:23;5.83;;;4.93;;
3095;SDS011;1558;42.700;23.360;2024-01-30T01:37:52;6.13;;;5.00;;
3095;SDS011;1558;42.700;23.360;2024-01-30T01:40:22;6.47;;;5.13;;
3095;SDS011;1558;42.700;23.360;2024-01-30T01:42:51;5.90;;;4.70;;
3095;SDS011;1558;42.700;23.360;2024-01-30T01:45:20;6.67;;;4.50;;
3095;SDS011;1558;42.700;23.360;2024-01-30T01:47:49;6.63;;;4.87;;
3095;SDS011;1558;42.700;23.360;2024-01-30T01:50:23;5.27;;;4.77;;
3095;SDS011;1558;42.700;23.360;2024-01-30T01:52:52;5.60;;;4.87;;
3095;SDS011;1558;42.700;23.360;2024-01-30T01:55:23;6.67;;;4.97;;
3095;SDS011;1558;42.700;23.360;2024-01-30T01:57:53;6.00;;;5.07;;
3095;SDS011;1558;42.700;23.360;2024-01-30T02:00:22;5.80;;;4.70;;
3095;SDS011;1558;42.700;23.360;2024-01-30T02:02:51;5.80;;;5.00;;
3095;SDS011;1558;42.700;23.360;2024-01-30T02:05:20;5.53;;;4.97;;
3095;SDS011;1558;42.700;23.360;2024-01-30T02:07:51;4.83;;;4.33;;
3095;SDS011;1558;42.700;23.360;2024-01-30T02:10:20;5.80;;;4.97;;
3095;SDS011;1558;42.700;23.360;2024-01-30T02:12:48;6.97;;;5.20;;
3095;SDS011;1558;42.700;23.360;2024-01-30T02:15:17;5.40;;;4.90;;
3095;SDS011;1558;42.700;23.360;2024-01-30T02:17:45;6.07;;;4.67;;
3095;SDS011;1558;42.700;23.360;2024-01-30T02:20:13;5.47;;;4.90;;
3095;SDS011;1558;42.700;23.360;2024-01-30T02:22:43;5.20;;;4.70;;
3095;SDS011;1558;42.700;23.360;2024-01-30T02:25:12;5.30;;;4.60;;
3095;SDS011;1558;42.700;23.360;2024-01-30T02:27:41;5.60;;;4.40;;
3095;SDS011;1558;42.700;23.360;2024-01-30T02:30:09;5.10;;;4.37;;
3095;SDS011;1558;42.700;23.360;2024-01-30T02:32:38;5.13;;;4.50;;
3095;SDS011;1558;42.700;23.360;2024-01-30T02:35:06;5.00;;;4.50;;
3095;SDS011;1558;42.700;23.360;2024-01-30T02:37:35;4.90;;;4.40;;
3095;SDS011;1558;42.700;23.360;2024-01-30T02:40:05;5.07;;;4.20;;
3095;SDS011;1558;42.700;23.360;2024-01-30T02:42:34;5.33;;;4.23;;
3095;SDS011;1558;42.700;23.360;2024-01-30T02:45:03;4.77;;;4.10;;
3095;SDS011;1558;42.700;23.360;2024-01-30T02:47:32;4.63;;;4.23;;
3095;SDS011;1558;42.700;23.360;2024-01-30T02:50:00;4.40;;;4.00;;
3095;SDS011;1558;42.700;23.360;2024-01-30T02:52:28;5.50;;;4.00;;
3095;SDS011;1558;42.700;23.360;2024-01-30T02:54:57;4.90;;;4.20;;
3095;SDS011;1558;42.700;23.360;2024-01-30T02:57:26;5.07;;;4.57;;
3095;SDS011;1558;42.700;23.360;2024-01-30T02:59:54;5.07;;;4.27;;
3095;SDS011;1558;42.700;23.360;2024-01-30T03:02:23;5.43;;;4.17;;
3095;SDS011;1558;42.700;23.360;2024-01-30T03:04:51;4.97;;;3.80;;
3095;SDS011;1558;42.700;23.360;2024-01-30T03:07:20;4.67;;;3.50;;
3095;SDS011;1558;42.700;23.360;2024-01-30T03:09:48;4.33;;;3.63;;
3095;SDS011;1558;42.700;23.360;2024-01-30T03:12:16;4.60;;;4.13;;
3095;SDS011;1558;42.700;23.360;2024-01-30T03:14:46;4.50;;;4.10;;
3095;SDS011;1558;42.700;23.360;2024-01-30T03:17:14;4.30;;;3.90;;
3095;SDS011;1558;42.700;23.360;2024-01-30T03:19:42;3.93;;;3.63;;
3095;SDS011;1558;42.700;23.360;2024-01-30T03:22:10;4.77;;;4.07;;
3095;SDS011;1558;42.700;23.360;2024-01-30T03:24:39;4.10;;;3.70;;
3095;SDS011;1558;42.700;23.360;2024-01-30T03:27:07;4.43;;;3.50;;
3095;SDS011;1558;42.700;23.360;2024-01-30T03:29:35;4.00;;;3.60;;
3095;SDS011;1558;42.700;23.360;2024-01-30T03:32:05;3.93;;;3.53;;
3095;SDS011;1558;42.700;23.360;2024-01-30T03:34:34;4.60;;;3.77;;
3095;SDS011;1558;42.700;23.360;2024-01-30T03:37:02;4.10;;;3.30;;
3095;SDS011;1558;42.700;23.360;2024-01-30T03:39:30;5.63;;;3.60;;
3095;SDS011;1558;42.700;23.360;2024-01-30T03:41:59;4.10;;;3.67;;
3095;SDS011;1558;42.700;23.360;2024-01-30T03:44:27;5.93;;;3.50;;
3095;SDS011;1558;42.700;23.360;2024-01-30T03:46:55;3.80;;;3.33;;
3095;SDS011;1558;42.700;23.360;2024-01-30T03:49:24;4.37;;;2.80;;
3095;SDS011;1558;42.700;23.360;2024-01-30T03:51:53;3.53;;;3.20;;
3095;SDS011;1558;42.700;23.360;2024-01-30T03:54:22;3.73;;;3.40;;
3095;SDS011;1558;42.700;23.360;2024-01-30T03:56:50;4.47;;;3.50;;
3095;SDS011;1558;42.700;23.360;2024-01-30T03:59:18;4.10;;;3.60;;
3095;SDS011;1558;42.700;23.360;2024-01-30T04:01:50;4.03;;;3.53;;
3095;SDS011;1558;42.700;23.360;2024-01-30T04:04:19;6.10;;;3.53;;
3095;SDS011;1558;42.700;23.360;2024-01-30T04:06:49;3.97;;;3.57;;
3095;SDS011;1558;42.700;23.360;2024-01-30T04:09:17;5.60;;;3.40;;
3095;SDS011;1558;42.700;23.360;2024-01-30T04:11:45;4.77;;;3.87;;
3095;SDS011;1558;42.700;23.360;2024-01-30T04:14:14;7.00;;;4.07;;
3095;SDS011;1558;42.700;23.360;2024-01-30T04:16:42;5.00;;;3.77;;
3095;SDS011;1558;42.700;23.360;2024-01-30T04:19:10;5.70;;;3.93;;
3095;SDS011;1558;42.700;23.360;2024-01-30T04:21:38;5.57;;;3.73;;
3095;SDS011;1558;42.700;23.360;2024-01-30T04:24:08;5.67;;;3.87;;
3095;SDS011;1558;42.700;23.360;2024-01-30T04:26:36;5.30;;;4.03;;
3095;SDS011;1558;42.700;23.360;2024-01-30T04:29:04;7.33;;;5.47;;
3095;SDS011;1558;42.700;23.360;2024-01-30T04:31:32;12.93;;;4.97;;
3095;SDS011;1558;42.700;23.360;2024-01-30T04:34:00;8.93;;;5.07;;
3095;SDS011;1558;42.700;23.360;2024-01-30T04:36:29;7.00;;;5.00;;
3095;SDS011;1558;42.700;23.360;2024-01-30T04:38:57;7.37;;;5.27;;
3095;SDS011;1558;42.700;23.360;2024-01-30T04:41:26;10.27;;;4.90;;
3095;SDS011;1558;42.700;23.360;2024-01-30T04:43:57;5.93;;;4.63;;
3095;SDS011;1558;42.700;23.360;2024-01-30T04:46:26;7.43;;;5.10;;
3095;SDS011;1558;42.700;23.360;2024-01-30T04:48:54;8.63;;;4.80;;
3095;SDS011;1558;42.700;23.360;2024-01-30T04:51:23;7.20;;;5.40;;
3095;SDS011;1558;42.700;23.360;2024-01-30T04:53:51;7.37;;;4.50;;
3095;SDS011;1558;42.700;23.360;2024-01-30T04:56:20;8.67;;;5.33;;
3095;SDS011;1558;42.700;23.360;2024-01-30T04:58:49;9.20;;;5.20;;
3095;SDS011;1558;42.700;23.360;2024-01-30T05:01:17;8.80;;;5.37;;
3095;SDS011;1558;42.700;23.360;2024-01-30T05:03:46;6.60;;;5.20;;
3095;SDS011;1558;42.700;23.360;2024-01-30T05:06:23;12.77;;;6.83;;
3095;SDS011;1558;42.700;23.360;2024-01-30T05:08:52;12.20;;;6.60;;
3095;SDS011;1558;42.700;23.360;2024-01-30T05:11:20;12.20;;;5.27;;
3095;SDS011;1558;42.700;23.360;2024-01-30T05:13:49;15.13;;;5.90;;
3095;SDS011;1558;42.700;23.360;2024-01-30T05:16:18;6.70;;;4.93;;
3095;SDS011;1558;42.700;23.360;2024-01-30T05:18:46;8.30;;;5.40;;
3095;SDS011;1558;42.700;23.360;2024-01-30T05:21:14;7.60;;;5.43;;
3095;SDS011;1558;42.700;23.360;2024-01-30T05:23:42;7.87;;;5.17;;
3095;SDS011;1558;42.700;23.360;2024-01-30T05:26:11;10.43;;;5.43;;
3095;SDS011;1558;42.700;23.360;2024-01-30T05:28:39;8.93;;;5.20;;
3095;SDS011;1558;42.700;23.360;2024-01-30T05:31:08;10.33;;;7.57;;
3095;SDS011;1558;42.700;23.360;2024-01-30T05:33:37;10.10;;;6.90;;
3095;SDS011;1558;42.700;23.360;2024-01-30T05:36:05;12.90;;;6.33;;
3095;SDS011;1558;42.700;23.360;2024-01-30T05:38:35;9.50;;;5.67;;
3095;SDS011;1558;42.700;23.360;2024-01-30T05:41:03;8.93;;;5.10;;
3095;SDS011;1558;42.700;23.360;2024-01-30T05:43:31;6.90;;;5.40;;
3095;SDS011;1558;42.700;23.360;2024-01-30T05:45:59;12.70;;;5.90;;
3095;SDS011;1558;42.700;23.360;2024-01-30T05:48:29;8.90;;;5.13;;
3095;SDS011;1558;42.700;23.360;2024-01-30T05:50:58;8.63;;;5.40;;
3095;SDS011;1558;42.700;23.360;2024-01-30T05:53:26;7.30;;;5.00;;
3095;SDS011;1558;42.700;23.360;2024-01-30T05:55:54;13.77;;;5.77;;
3095;SDS011;1558;42.700;23.360;2024-01-30T05:58:23;13.90;;;6.00;;
3095;SDS011;1558;42.700;23.360;2024-01-30T06:00:51;7.60;;;5.73;;
3095;SDS011;1558;42.700;23.360;2024-01-30T06:03:19;15.93;;;7.17;;
3095;SDS011;1558;42.700;23.360;2024-01-30T06:05:49;10.33;;;6.57;;
3095;SDS011;1558;42.700;23.360;2024-01-30T06:08:17;11.60;;;6.40;;
3095;SDS011;1558;42.700;23.360;2024-01-30T06:10:45;9.93;;;5.90;;
3095;SDS011;1558;42.700;23.360;2024-01-30T06:13:14;18.70;;;8.00;;
3095;SDS011;1558;42.700;23.360;2024-01-30T06:15:42;17.33;;;8.37;;
3095;SDS011;1558;42.700;23.360;2024-01-30T06:18:11;15.87;;;7.17;;
3095;SDS011;1558;42.700;23.360;2024-01-30T06:20:39;15.50;;;8.80;;
3095;SDS011;1558;42.700;23.360;2024-01-30T06:23:09;17.20;;;7.50;;
3095;SDS011;1558;42.700;23.360;2024-01-30T06:25:39;13.03;;;7.47;;
3095;SDS011;1558;42.700;23.360;2024-01-30T06:28:07;18.77;;;8.57;;
3095;SDS011;1558;42.700;23.360;2024-01-30T06:30:35;25.23;;;10.30;;
3095;SDS011;1558;42.700;23.360;2024-01-30T06:33:04;12.47;;;7.47;;
3095;SDS011;1558;42.700;23.360;2024-01-30T06:35:32;19.03;;;10.37;;
3095;SDS011;1558;42.700;23.360;2024-01-30T06:38:02;16.50;;;8.77;;
3095;SDS011;1558;42.700;23.360;2024-01-30T06:40:32;22.63;;;10.87;;
3095;SDS011;1558;42.700;23.360;2024-01-30T06:43:00;18.77;;;9.23;;
3095;SDS011;1558;42.700;23.360;2024-01-30T06:45:29;15.37;;;8.87;;
3095;SDS011;1558;42.700;23.360;2024-01-30T06:47:57;11.83;;;7.57;;
3095;SDS011;1558;42.700;23.360;2024-01-30T06:50:25;10.53;;;6.80;;
3095;SDS011;1558;42.700;23.360;2024-01-30T06:52:55;14.30;;;7.87;;
3095;SDS011;1558;42.700;23.360;2024-01-30T06:55:23;15.73;;;6.93;;
3095;SDS011;1558;42.700;23.360;2024-01-30T06:57:52;16.00;;;8.23;;
3095;SDS011;1558;42.700;23.360;2024-01-30T07:00:21;14.90;;;7.53;;
3095;SDS011;1558;42.700;23.360;2024-01-30T07:02:50;6.77;;;5.63;;
3095;SDS011;1558;42.700;23.360;2024-01-30T07:05:18;30.07;;;9.20;;
3095;SDS011;1558;42.700;23.360;2024-01-30T07:07:48;27.80;;;8.03;;
3095;SDS011;1558;42.700;23.360;2024-01-30T07:10:16;7.83;;;7.03;;
3095;SDS011;1558;42.700;23.360;2024-01-30T07:12:44;8.73;;;6.50;;
3095;SDS011;1558;42.700;23.360;2024-01-30T07:15:14;12.40;;;6.73;;
3095;SDS011;1558;42.700;23.360;2024-01-30T07:17:46;8.70;;;6.10;;
3095;SDS011;1558;42.700;23.360;2024-01-30T07:20:14;8.97;;;5.63;;
3095;SDS011;1558;42.700;23.360;2024-01-30T07:22:44;4.87;;;4.10;;
3095;SDS011;1558;42.700;23.360;2024-01-30T07:25:12;11.73;;;5.27;;
3095;SDS011;1558;42.700;23.360;2024-01-30T07:27:40;6.23;;;4.97;;
3095;SDS011;1558;42.700;23.360;2024-01-30T07:30:08;13.20;;;7.07;;
3095;SDS011;1558;42.700;23.360;2024-01-30T07:32:38;4.90;;;4.47;;
3095;SDS011;1558;42.700;23.360;2024-01-30T07:35:07;6.23;;;4.87;;
3095;SDS011;1558;42.700;23.360;2024-01-30T07:37:35;8.30;;;5.03;;
3095;SDS011;1558;42.700;23.360;2024-01-30T07:40:04;6.77;;;4.53;;
3095;SDS011;1558;42.700;23.360;2024-01-30T07:42:33;7.40;;;5.00;;
3095;SDS011;1558;42.700;23.360;2024-01-30T07:45:02;9.43;;;5.27;;
3095;SDS011;1558;42.700;23.360;2024-01-30T07:47:30;9.57;;;5.93;;
3095;SDS011;1558;42.700;23.360;2024-01-30T07:50:00;7.33;;;4.83;;
3095;SDS011;1558;42.700;23.360;2024-01-30T07:52:29;6.07;;;4.70;;
3095;SDS011;1558;42.700;23.360;2024-01-30T07:54:58;15.57;;;6.33;;
3095;SDS011;1558;42.700;23.360;2024-01-30T07:57:26;4.83;;;4.43;;
3095;SDS011;1558;42.700;23.360;2024-01-30T07:59:55;8.23;;;4.80;;
3095;SDS011;1558;42.700;23.360;2024-01-30T08:02:26;4.77;;;4.10;;
3095;SDS011;1558;42.700;23.360;2024-01-30T08:04:54;6.47;;;4.40;;
3095;SDS011;1558;42.700;23.360;2024-01-30T08:07:24;4.43;;;4.00;;
3095;SDS011;1558;42.700;23.360;2024-01-30T08:09:52;13.40;;;5.37;;
3095;SDS011;1558;42.700;23.360;2024-01-30T08:12:20;5.63;;;4.67;;
3095;SDS011;1558;42.700;23.360;2024-01-30T08:14:49;7.20;;;4.43;;
3095;SDS011;1558;42.700;23.360;2024-01-30T08:17:17;7.67;;;5.33;;
3095;SDS011;1558;42.700;23.360;2024-01-30T08:19:45;10.07;;;4.97;;
3095;SDS011;1558;42.700;23.360;2024-01-30T08:22:13;6.70;;;4.70;;
3095;SDS011;1558;42.700;23.360;2024-01-30T08:24:43;5.60;;;4.23;;
3095;SDS011;1558;42.700;23.360;2024-01-30T08:27:11;6.60;;;4.60;;
3095;SDS011;1558;42.700;23.360;2024-01-30T08:29:39;7.53;;;5.73;;
3095;SDS011;1558;42.700;23.360;2024-01-30T08:32:07;7.40;;;4.90;;
3095;SDS011;1558;42.700;23.360;2024-01-30T08:34:35;5.50;;;4.70;;
3095;SDS011;1558;42.700;23.360;2024-01-30T08:37:04;7.27;;;5.57;;
3095;SDS011;1558;42.700;23.360;2024-01-30T08:39:33;8.70;;;6.63;;
3095;SDS011;1558;42.700;23.360;2024-01-30T08:42:02;10.27;;;6.20;;
3095;SDS011;1558;42.700;23.360;2024-01-30T08:44:31;14.77;;;5.63;;
3095;SDS011;1558;42.700;23.360;2024-01-30T08:46:59;6.13;;;4.47;;
3095;SDS011;1558;42.700;23.360;2024-01-30T08:49:26;4.90;;;4.40;;
3095;SDS011;1558;42.700;23.360;2024-01-30T08:51:55;4.70;;;4.30;;
3095;SDS011;1558;42.700;23.360;2024-01-30T08:54:24;8.00;;;4.53;;
3095;SDS011;1558;42.700;23.360;2024-01-30T08:56:52;6.40;;;5.00;;
3095;SDS011;1558;42.700;23.360;2024-01-30T08:59:24;6.03;;;4.60;;
3095;SDS011;1558;42.700;23.360;2024-01-30T09:01:52;9.10;;;5.30;;
3095;SDS011;1558;42.700;23.360;2024-01-30T09:04:36;7.50;;;6.13;;
3095;SDS011;1558;42.700;23.360;2024-01-30T09:07:05;7.57;;;5.10;;
3095;SDS011;1558;42.700;23.360;2024-01-30T09:09:37;5.23;;;4.73;;
3095;SDS011;1558;42.700;23.360;2024-01-30T09:12:06;8.33;;;5.90;;
3095;SDS011;1558;42.700;23.360;2024-01-30T09:14:37;11.57;;;7.03;;
3095;SDS011;1558;42.700;23.360;2024-01-30T09:17:06;6.13;;;4.63;;
3095;SDS011;1558;42.700;23.360;2024-01-30T09:19:35;6.57;;;4.40;;
3095;SDS011;1558;42.700;23.360;2024-01-30T09:22:03;7.60;;;4.23;;
3095;SDS011;1558;42.700;23.360;2024-01-30T09:24:32;11.07;;;5.07;;
3095;SDS011;1558;42.700;23.360;2024-01-30T09:27:00;12.80;;;5.80;;
3095;SDS011;1558;42.700;23.360;2024-01-30T09:29:28;6.43;;;5.27;;
3095;SDS011;1558;42.700;23.360;2024-01-30T09:31:58;6.60;;;5.90;;
3095;SDS011;1558;42.700;23.360;2024-01-30T09:34:26;5.27;;;4.77;;
3095;SDS011;1558;42.700;23.360;2024-01-30T09:36:54;7.43;;;5.93;;
3095;SDS011;1558;42.700;23.360;2024-01-30T09:39:22;7.13;;;5.97;;
3095;SDS011;1558;42.700;23.360;2024-01-30T09:41:54;9.67;;;5.40;;
3095;SDS011;1558;42.700;23.360;2024-01-30T09:44:29;7.63;;;4.93;;
3095;SDS011;1558;42.700;23.360;2024-01-30T09:46:59;35.03;;;7.80;;
3095;SDS011;1558;42.700;23.360;2024-01-30T09:49:31;7.20;;;4.77;;
3095;SDS011;1558;42.700;23.360;2024-01-30T09:52:00;6.30;;;4.23;;
3095;SDS011;1558;42.700;23.360;2024-01-30T09:54:30;7.10;;;5.17;;
3095;SDS011;1558;42.700;23.360;2024-01-30T09:57:02;8.50;;;7.27;;
3095;SDS011;1558;42.700;23.360;2024-01-30T09:59:31;6.83;;;4.60;;
3095;SDS011;1558;42.700;23.360;2024-01-30T10:02:00;5.10;;;4.60;;
3095;SDS011;1558;42.700;23.360;2024-01-30T10:04:30;5.43;;;5.00;;
3095;SDS011;1558;42.700;23.360;2024-01-30T10:07:00;5.17;;;4.67;;
3095;SDS011;1558;42.700;23.360;2024-01-30T10:09:31;7.73;;;5.20;;
3095;SDS011;1558;42.700;23.360;2024-01-30T10:12:00;5.10;;;4.43;;
3095;SDS011;1558;42.700;23.360;2024-01-30T10:14:30;6.63;;;4.67;;
3095;SDS011;1558;42.700;23.360;2024-01-30T10:17:01;6.40;;;4.43;;
3095;SDS011;1558;42.700;23.360;2024-01-30T10:19:42;7.20;;;4.13;;
3095;SDS011;1558;42.700;23.360;2024-01-30T10:22:11;6.07;;;4.20;;
3095;SDS011;1558;42.700;23.360;2024-01-30T10:24:39;7.33;;;4.90;;
3095;SDS011;1558;42.700;23.360;2024-01-30T10:27:07;8.13;;;4.40;;
3095;SDS011;1558;42.700;23.360;2024-01-30T10:29:36;4.53;;;4.07;;
3095;SDS011;1558;42.700;23.360;2024-01-30T10:32:05;7.40;;;5.07;;
3095;SDS011;1558;42.700;23.360;2024-01-30T10:34:34;8.00;;;4.10;;
3095;SDS011;1558;42.700;23.360;2024-01-30T10:37:06;4.07;;;3.67;;
3095;SDS011;1558;42.700;23.360;2024-01-30T10:39:39;8.70;;;4.70;;
3095;SDS011;1558;42.700;23.360;2024-01-30T10:42:10;3.60;;;3.30;;
3095;SDS011;1558;42.700;23.360;2024-01-30T10:44:43;6.00;;;3.93;;
3095;SDS011;1558;42.700;23.360;2024-01-30T10:47:18;3.53;;;3.23;;
3095;SDS011;1558;42.700;23.360;2024-01-30T10:49:53;3.17;;;2.87;;
3095;SDS011;1558;42.700;23.360;2024-01-30T10:52:23;9.83;;;4.33;;
3095;SDS011;1558;42.700;23.360;2024-01-30T10:54:53;4.87;;;3.93;;
3095;SDS011;1558;42.700;23.360;2024-01-30T10:57:23;4.13;;;3.80;;
3095;SDS011;1558;42.700;23.360;2024-01-30T10:59:52;6.07;;;3.57;;
3095;SDS011;1558;42.700;23.360;2024-01-30T11:02:24;10.27;;;4.70;;
3095;SDS011;1558;42.700;23.360;2024-01-30T11:04:54;9.70;;;3.60;;
3095;SDS011;1558;42.700;23.360;2024-01-30T11:07:25;4.47;;;3.90;;
3095;SDS011;1558;42.700;23.360;2024-01-30T11:09:59;5.70;;;4.93;;
3095;SDS011;1558;42.700;23.360;2024-01-30T11:12:31;6.43;;;4.07;;
3095;SDS011;1558;42.700;23.360;2024-01-30T11:15:04;3.80;;;3.40;;
3095;SDS011;1558;42.700;23.360;2024-01-30T11:17:42;15.97;;;9.73;;
3095;SDS011;1558;42.700;23.360;2024-01-30T11:20:11;4.73;;;4.23;;
3095;SDS011;1558;42.700;23.360;2024-01-30T11:22:42;13.30;;;7.27;;
3095;SDS011;1558;42.700;23.360;2024-01-30T11:25:13;8.00;;;4.30;;
3095;SDS011;1558;42.700;23.360;2024-01-30T11:27:41;5.83;;;3.73;;
3095;SDS011;1558;42.700;23.360;2024-01-30T11:30:10;5.23;;;4.20;;
3095;SDS011;1558;42.700;23.360;2024-01-30T11:32:59;4.17;;;3.70;;
3095;SDS011;1558;42.700;23.360;2024-01-30T11:35:34;9.20;;;5.17;;
3095;SDS011;1558;42.700;23.360;2024-01-30T11:38:03;4.83;;;3.97;;
3095;SDS011;1558;42.700;23.360;2024-01-30T11:40:33;5.17;;;3.50;;
3095;SDS011;1558;42.700;23.360;2024-01-30T11:43:03;5.23;;;4.00;;
3095;SDS011;1558;42.700;23.360;2024-01-30T11:45:33;5.13;;;4.03;;
3095;SDS011;1558;42.700;23.360;2024-01-30T11:48:04;4.93;;;4.47;;
3095;SDS011;1558;42.700;23.360;2024-01-30T11:50:34;7.43;;;4.30;;
3095;SDS011;1558;42.700;23.360;2024-01-30T11:53:04;6.23;;;5.60;;
3095;SDS011;1558;42.700;23.360;2024-01-30T11:55:33;10.03;;;6.10;;
3095;SDS011;1558;42.700;23.360;2024-01-30T11:58:03;6.83;;;4.83;;
3095;SDS011;1558;42.700;23.360;2024-01-30T12:00:32;6.57;;;4.30;;
3095;SDS011;1558;42.700;23.360;2024-01-30T12:03:02;10.30;;;5.80;;
3095;SDS011;1558;42.700;23.360;2024-01-30T12:05:33;5.47;;;4.97;;
3095;SDS011;1558;42.700;23.360;2024-01-30T12:08:03;4.33;;;3.80;;
3095;SDS011;1558;42.700;23.360;2024-01-30T12:10:32;5.67;;;4.80;;
3095;SDS011;1558;42.700;23.360;2024-01-30T12:13:00;6.13;;;5.50;;
3095;SDS011;1558;42.700;23.360;2024-01-30T12:15:29;7.73;;;5.43;;
3095;SDS011;1558;42.700;23.360;2024-01-30T12:18:05;4.60;;;4.20;;
3095;SDS011;1558;42.700;23.360;2024-01-30T12:20:35;4.33;;;3.57;;
3095;SDS011;1558;42.700;23.360;2024-01-30T12:23:03;11.80;;;8.30;;
3095;SDS011;1558;42.700;23.360;2024-01-30T12:25:32;15.07;;;6.57;;
3095;SDS011;1558;42.700;23.360;2024-01-30T12:28:00;4.53;;;4.13;;
3095;SDS011;1558;42.700;23.360;2024-01-30T12:30:30;6.07;;;4.93;;
3095;SDS011;1558;42.700;23.360;2024-01-30T12:32:58;5.57;;;5.00;;
3095;SDS011;1558;42.700;23.360;2024-01-30T12:35:29;5.10;;;4.37;;
3095;SDS011;1558;42.700;23.360;2024-01-30T12:37:59;7.63;;;4.23;;
3095;SDS011;1558;42.700;23.360;2024-01-30T12:40:27;9.90;;;6.60;;
3095;SDS011;1558;42.700;23.360;2024-01-30T12:42:56;6.10;;;5.50;;
3095;SDS011;1558;42.700;23.360;2024-01-30T12:45:25;7.13;;;6.53;;
3095;SDS011;1558;42.700;23.360;2024-01-30T12:47:53;4.87;;;4.47;;
3095;SDS011;1558;42.700;23.360;2024-01-30T12:50:21;5.53;;;4.93;;
3095;SDS011;1558;42.700;23.360;2024-01-30T12:52:53;3.97;;;3.57;;
3095;SDS011;1558;42.700;23.360;2024-01-30T12:55:23;5.30;;;4.80;;
3095;SDS011;1558;42.700;23.360;2024-01-30T12:57:55;10.33;;;5.50;;
3095;SDS011;1558;42.700;23.360;2024-01-30T13:00:23;5.70;;;4.80;;
3095;SDS011;1558;42.700;23.360;2024-01-30T13:02:51;6.10;;;4.67;;
3095;SDS011;1558;42.700;23.360;2024-01-30T13:05:19;9.13;;;6.37;;
3095;SDS011;1558;42.700;23.360;2024-01-30T13:07:48;6.17;;;5.20;;
3095;SDS011;1558;42.700;23.360;2024-01-30T13:10:18;9.67;;;5.33;;
3095;SDS011;1558;42.700;23.360;2024-01-30T13:12:47;9.77;;;6.33;;
3095;SDS011;1558;42.700;23.360;2024-01-30T13:15:15;7.60;;;6.23;;
3095;SDS011;1558;42.700;23.360;2024-01-30T13:17:43;17.13;;;7.40;;
3095;SDS011;1558;42.700;23.360;2024-01-30T13:20:13;8.53;;;5.93;;
3095;SDS011;1558;42.700;23.360;2024-01-30T13:22:43;6.90;;;6.20;;
3095;SDS011;1558;42.700;23.360;2024-01-30T13:25:13;6.70;;;5.63;;
3095;SDS011;1558;42.700;23.360;2024-01-30T13:27:42;8.07;;;6.03;;
3095;SDS011;1558;42.700;23.360;2024-01-30T13:30:11;6.60;;;5.50;;
3095;SDS011;1558;42.700;23.360;2024-01-30T13:32:40;8.57;;;5.63;;
3095;SDS011;1558;42.700;23.360;2024-01-30T13:35:11;8.00;;;5.30;;
3095;SDS011;1558;42.700;23.360;2024-01-30T13:37:39;6.90;;;5.40;;
3095;SDS011;1558;42.700;23.360;2024-01-30T13:40:08;5.50;;;5.00;;
3095;SDS011;1558;42.700;23.360;2024-01-30T13:42:40;6.43;;;5.83;;
3095;SDS011;1558;42.700;23.360;2024-01-30T13:45:10;6.27;;;5.30;;
3095;SDS011;1558;42.700;23.360;2024-01-30T13:47:38;5.67;;;5.10;;
3095;SDS011;1558;42.700;23.360;2024-01-30T13:50:07;7.43;;;5.10;;
3095;SDS011;1558;42.700;23.360;2024-01-30T13:52:42;7.53;;;6.43;;
3095;SDS011;1558;42.700;23.360;2024-01-30T13:55:11;10.37;;;6.40;;
3095;SDS011;1558;42.700;23.360;2024-01-30T13:57:40;6.33;;;5.73;;
3095;SDS011;1558;42.700;23.360;2024-01-30T14:00:15;6.23;;;5.63;;
3095;SDS011;1558;42.700;23.360;2024-01-30T14:02:43;9.33;;;6.80;;
3095;SDS011;1558;42.700;23.360;2024-01-30T14:05:11;14.03;;;9.80;;
3095;SDS011;1558;42.700;23.360;2024-01-30T14:07:42;6.80;;;5.33;;
3095;SDS011;1558;42.700;23.360;2024-01-30T14:10:11;7.00;;;6.10;;
3095;SDS011;1558;42.700;23.360;2024-01-30T14:12:41;6.27;;;5.60;;
3095;SDS011;1558;42.700;23.360;2024-01-30T14:15:11;5.90;;;5.00;;
3095;SDS011;1558;42.700;23.360;2024-01-30T14:17:55;11.63;;;6.93;;
3095;SDS011;1558;42.700;23.360;2024-01-30T14:20:25;8.63;;;6.50;;
3095;SDS011;1558;42.700;23.360;2024-01-30T14:22:53;7.67;;;5.70;;
3095;SDS011;1558;42.700;23.360;2024-01-30T14:25:23;10.37;;;5.40;;
3095;SDS011;1558;42.700;23.360;2024-01-30T14:27:51;6.07;;;5.30;;
3095;SDS011;1558;42.700;23.360;2024-01-30T14:30:20;10.33;;;5.27;;
3095;SDS011;1558;42.700;23.360;2024-01-30T14:32:48;6.40;;;4.67;;
3095;SDS011;1558;42.700;23.360;2024-01-30T14:35:19;7.57;;;6.13;;
3095;SDS011;1558;42.700;23.360;2024-01-30T14:37:47;8.00;;;5.33;;
3095;SDS011;1558;42.700;23.360;2024-01-30T14:40:16;7.90;;;5.60;;
3095;SDS011;1558;42.700;23.360;2024-01-30T14:42:45;5.73;;;4.90;;
3095;SDS011;1558;42.700;23.360;2024-01-30T14:45:13;12.50;;;7.13;;
3095;SDS011;1558;42.700;23.360;2024-01-30T14:47:42;9.20;;;5.83;;
3095;SDS011;1558;42.700;23.360;2024-01-30T14:50:11;7.33;;;5.30;;
3095;SDS011;1558;42.700;23.360;2024-01-30T14:52:42;6.63;;;5.13;;
3095;SDS011;1558;42.700;23.360;2024-01-30T14:55:11;6.27;;;4.77;;
3095;SDS011;1558;42.700;23.360;2024-01-30T14:57:39;6.83;;;4.90;;
3095;SDS011;1558;42.700;23.360;2024-01-30T15:00:09;7.67;;;5.30;;
3095;SDS011;1558;42.700;23.360;2024-01-30T15:02:38;10.80;;;5.00;;
3095;SDS011;1558;42.700;23.360;2024-01-30T15:05:06;12.23;;;7.53;;
3095;SDS011;1558;42.700;23.360;2024-01-30T15:07:37;12.20;;;6.17;;
3095;SDS011;1558;42.700;23.360;2024-01-30T15:10:08;12.40;;;6.13;;